<?xml version="1.0" encoding="UTF-8" standalone="no" ?>
<gpx xmlns="http://www.topografix.com/GPX/1/1" xmlns:xsi="http://www.w3.org/2001/XMLSchema-instance" xsi:schemaLocation="http://www.topografix.com/GPX/1/1 http://www.topografix.com/GPX/1/1/gpx.xsd" version="1.1" creator="VisuGPX - https://www.visugpx.com">
  <metadata>
    <name>Cabane Sedars et d\'Aline</name>
    <desc><![CDATA[Rando tres sympathique depuis Appy, à refaire en hiver en raquettes]]></desc>
  </metadata>
  <trk>
    <name><![CDATA[2014-10-15 15:59:10]]></name>
    <trkseg>
      <trkpt lat="42.79177" lon="1.73299">
        <ele>993.18</ele>
        <time>2014-10-15T07:18:21Z</time>
      </trkpt>
      <trkpt lat="42.79177" lon="1.73303">
        <ele>992.7</ele>
        <time>2014-10-15T07:18:36Z</time>
      </trkpt>
      <trkpt lat="42.79185" lon="1.73291">
        <ele>994.14</ele>
        <time>2014-10-15T07:26:59Z</time>
      </trkpt>
      <trkpt lat="42.79209" lon="1.73346">
        <ele>999.43</ele>
        <time>2014-10-15T07:27:59Z</time>
      </trkpt>
      <trkpt lat="42.79245" lon="1.73391">
        <ele>1005.2</ele>
        <time>2014-10-15T07:28:50Z</time>
      </trkpt>
      <trkpt lat="42.79288" lon="1.73405">
        <ele>1014.33</ele>
        <time>2014-10-15T07:29:52Z</time>
      </trkpt>
      <trkpt lat="42.79311" lon="1.73397">
        <ele>1022.5</ele>
        <time>2014-10-15T07:30:55Z</time>
      </trkpt>
      <trkpt lat="42.79361" lon="1.73395">
        <ele>1035.96</ele>
        <time>2014-10-15T07:32:26Z</time>
      </trkpt>
      <trkpt lat="42.7941" lon="1.73391">
        <ele>1044.61</ele>
        <time>2014-10-15T07:33:52Z</time>
      </trkpt>
      <trkpt lat="42.79461" lon="1.73387">
        <ele>1052.78</ele>
        <time>2014-10-15T07:35:07Z</time>
      </trkpt>
      <trkpt lat="42.79476" lon="1.73462">
        <ele>1062.39</ele>
        <time>2014-10-15T07:36:46Z</time>
      </trkpt>
      <trkpt lat="42.79477" lon="1.73534">
        <ele>1074.89</ele>
        <time>2014-10-15T07:39:07Z</time>
      </trkpt>
      <trkpt lat="42.79484" lon="1.73583">
        <ele>1085.47</ele>
        <time>2014-10-15T07:40:05Z</time>
      </trkpt>
      <trkpt lat="42.79512" lon="1.73554">
        <ele>1096.04</ele>
        <time>2014-10-15T07:41:18Z</time>
      </trkpt>
      <trkpt lat="42.79537" lon="1.73555">
        <ele>1108.54</ele>
        <time>2014-10-15T07:42:43Z</time>
      </trkpt>
      <trkpt lat="42.79553" lon="1.73603">
        <ele>1123.44</ele>
        <time>2014-10-15T07:43:56Z</time>
      </trkpt>
      <trkpt lat="42.79553" lon="1.73668">
        <ele>1135.45</ele>
        <time>2014-10-15T07:45:15Z</time>
      </trkpt>
      <trkpt lat="42.79541" lon="1.73722">
        <ele>1145.07</ele>
        <time>2014-10-15T07:47:20Z</time>
      </trkpt>
      <trkpt lat="42.79523" lon="1.73773">
        <ele>1155.64</ele>
        <time>2014-10-15T07:48:46Z</time>
      </trkpt>
      <trkpt lat="42.7953" lon="1.73832">
        <ele>1167.18</ele>
        <time>2014-10-15T07:50:01Z</time>
      </trkpt>
      <trkpt lat="42.79529" lon="1.73889">
        <ele>1179.19</ele>
        <time>2014-10-15T07:51:13Z</time>
      </trkpt>
      <trkpt lat="42.79518" lon="1.73942">
        <ele>1187.37</ele>
        <time>2014-10-15T07:53:20Z</time>
      </trkpt>
      <trkpt lat="42.79535" lon="1.73973">
        <ele>1193.13</ele>
        <time>2014-10-15T07:55:48Z</time>
      </trkpt>
      <trkpt lat="42.79565" lon="1.73938">
        <ele>1202.75</ele>
        <time>2014-10-15T07:56:58Z</time>
      </trkpt>
      <trkpt lat="42.79597" lon="1.73967">
        <ele>1211.88</ele>
        <time>2014-10-15T07:58:13Z</time>
      </trkpt>
      <trkpt lat="42.79635" lon="1.73983">
        <ele>1220.53</ele>
        <time>2014-10-15T07:59:13Z</time>
      </trkpt>
      <trkpt lat="42.79678" lon="1.74003">
        <ele>1231.59</ele>
        <time>2014-10-15T08:00:14Z</time>
      </trkpt>
      <trkpt lat="42.7972" lon="1.74014">
        <ele>1243.6</ele>
        <time>2014-10-15T08:01:26Z</time>
      </trkpt>
      <trkpt lat="42.79763" lon="1.74015">
        <ele>1251.77</ele>
        <time>2014-10-15T08:06:42Z</time>
      </trkpt>
      <trkpt lat="42.798" lon="1.73998">
        <ele>1259.94</ele>
        <time>2014-10-15T08:07:37Z</time>
      </trkpt>
      <trkpt lat="42.79834" lon="1.73956">
        <ele>1269.08</ele>
        <time>2014-10-15T08:08:46Z</time>
      </trkpt>
      <trkpt lat="42.7987" lon="1.7393">
        <ele>1280.13</ele>
        <time>2014-10-15T08:10:03Z</time>
      </trkpt>
      <trkpt lat="42.79909" lon="1.73903">
        <ele>1289.75</ele>
        <time>2014-10-15T08:11:14Z</time>
      </trkpt>
      <trkpt lat="42.79956" lon="1.73902">
        <ele>1299.36</ele>
        <time>2014-10-15T08:12:28Z</time>
      </trkpt>
      <trkpt lat="42.79988" lon="1.73942">
        <ele>1305.13</ele>
        <time>2014-10-15T08:13:33Z</time>
      </trkpt>
      <trkpt lat="42.80019" lon="1.73981">
        <ele>1312.34</ele>
        <time>2014-10-15T08:14:39Z</time>
      </trkpt>
      <trkpt lat="42.80045" lon="1.74027">
        <ele>1321.95</ele>
        <time>2014-10-15T08:15:54Z</time>
      </trkpt>
      <trkpt lat="42.80082" lon="1.7405">
        <ele>1333.49</ele>
        <time>2014-10-15T08:17:09Z</time>
      </trkpt>
      <trkpt lat="42.80113" lon="1.74043">
        <ele>1346.46</ele>
        <time>2014-10-15T08:27:36Z</time>
      </trkpt>
      <trkpt lat="42.8015" lon="1.74024">
        <ele>1361.36</ele>
        <time>2014-10-15T08:28:52Z</time>
      </trkpt>
      <trkpt lat="42.80194" lon="1.74033">
        <ele>1370.5</ele>
        <time>2014-10-15T08:29:54Z</time>
      </trkpt>
      <trkpt lat="42.80237" lon="1.74036">
        <ele>1381.55</ele>
        <time>2014-10-15T08:31:01Z</time>
      </trkpt>
      <trkpt lat="42.8028" lon="1.74064">
        <ele>1386.84</ele>
        <time>2014-10-15T08:31:54Z</time>
      </trkpt>
      <trkpt lat="42.80288" lon="1.74123">
        <ele>1395.97</ele>
        <time>2014-10-15T08:32:59Z</time>
      </trkpt>
      <trkpt lat="42.80299" lon="1.74182">
        <ele>1407.03</ele>
        <time>2014-10-15T08:34:02Z</time>
      </trkpt>
      <trkpt lat="42.80306" lon="1.74242">
        <ele>1413.28</ele>
        <time>2014-10-15T08:34:54Z</time>
      </trkpt>
      <trkpt lat="42.80323" lon="1.74296">
        <ele>1422.89</ele>
        <time>2014-10-15T08:35:48Z</time>
      </trkpt>
      <trkpt lat="42.80339" lon="1.74351">
        <ele>1432.98</ele>
        <time>2014-10-15T08:36:47Z</time>
      </trkpt>
      <trkpt lat="42.80365" lon="1.74396">
        <ele>1444.04</ele>
        <time>2014-10-15T08:37:53Z</time>
      </trkpt>
      <trkpt lat="42.80402" lon="1.74431">
        <ele>1456.53</ele>
        <time>2014-10-15T08:39:02Z</time>
      </trkpt>
      <trkpt lat="42.80408" lon="1.74382">
        <ele>1467.59</ele>
        <time>2014-10-15T08:40:10Z</time>
      </trkpt>
      <trkpt lat="42.80437" lon="1.74389">
        <ele>1480.09</ele>
        <time>2014-10-15T08:41:22Z</time>
      </trkpt>
      <trkpt lat="42.80431" lon="1.7434">
        <ele>1485.37</ele>
        <time>2014-10-15T08:50:27Z</time>
      </trkpt>
      <trkpt lat="42.80458" lon="1.74349">
        <ele>1495.95</ele>
        <time>2014-10-15T08:51:40Z</time>
      </trkpt>
      <trkpt lat="42.80489" lon="1.74389">
        <ele>1507.48</ele>
        <time>2014-10-15T08:52:52Z</time>
      </trkpt>
      <trkpt lat="42.80528" lon="1.74426">
        <ele>1518.54</ele>
        <time>2014-10-15T08:54:08Z</time>
      </trkpt>
      <trkpt lat="42.80565" lon="1.7446">
        <ele>1526.71</ele>
        <time>2014-10-15T08:55:08Z</time>
      </trkpt>
      <trkpt lat="42.80605" lon="1.74475">
        <ele>1540.17</ele>
        <time>2014-10-15T08:56:23Z</time>
      </trkpt>
      <trkpt lat="42.80646" lon="1.74494">
        <ele>1547.38</ele>
        <time>2014-10-15T08:57:39Z</time>
      </trkpt>
      <trkpt lat="42.80673" lon="1.74505">
        <ele>1549.3</ele>
        <time>2014-10-15T09:03:43Z</time>
      </trkpt>
      <trkpt lat="42.80675" lon="1.74573">
        <ele>1552.19</ele>
        <time>2014-10-15T09:05:08Z</time>
      </trkpt>
      <trkpt lat="42.80679" lon="1.74634">
        <ele>1556.99</ele>
        <time>2014-10-15T09:06:49Z</time>
      </trkpt>
      <trkpt lat="42.80674" lon="1.74691">
        <ele>1560.84</ele>
        <time>2014-10-15T09:08:00Z</time>
      </trkpt>
      <trkpt lat="42.80687" lon="1.74747">
        <ele>1564.2</ele>
        <time>2014-10-15T09:09:03Z</time>
      </trkpt>
      <trkpt lat="42.80701" lon="1.74805">
        <ele>1563.72</ele>
        <time>2014-10-15T09:10:01Z</time>
      </trkpt>
      <trkpt lat="42.80728" lon="1.74856">
        <ele>1571.41</ele>
        <time>2014-10-15T09:12:45Z</time>
      </trkpt>
      <trkpt lat="42.80743" lon="1.7491">
        <ele>1575.26</ele>
        <time>2014-10-15T09:13:43Z</time>
      </trkpt>
      <trkpt lat="42.80767" lon="1.7496">
        <ele>1579.1</ele>
        <time>2014-10-15T09:14:43Z</time>
      </trkpt>
      <trkpt lat="42.80783" lon="1.75017">
        <ele>1587.27</ele>
        <time>2014-10-15T09:17:14Z</time>
      </trkpt>
      <trkpt lat="42.80798" lon="1.75085">
        <ele>1590.64</ele>
        <time>2014-10-15T09:18:25Z</time>
      </trkpt>
      <trkpt lat="42.80832" lon="1.75137">
        <ele>1602.66</ele>
        <time>2014-10-15T09:19:45Z</time>
      </trkpt>
      <trkpt lat="42.80865" lon="1.75172">
        <ele>1604.1</ele>
        <time>2014-10-15T09:23:08Z</time>
      </trkpt>
      <trkpt lat="42.80867" lon="1.75218">
        <ele>1606.98</ele>
        <time>2014-10-15T09:25:03Z</time>
      </trkpt>
      <trkpt lat="42.80854" lon="1.75261">
        <ele>1622.36</ele>
        <time>2014-10-15T09:27:59Z</time>
      </trkpt>
      <trkpt lat="42.80847" lon="1.75315">
        <ele>1632.94</ele>
        <time>2014-10-15T09:29:12Z</time>
      </trkpt>
      <trkpt lat="42.80859" lon="1.75368">
        <ele>1634.38</ele>
        <time>2014-10-15T09:31:20Z</time>
      </trkpt>
      <trkpt lat="42.80898" lon="1.75395">
        <ele>1640.63</ele>
        <time>2014-10-15T09:32:07Z</time>
      </trkpt>
      <trkpt lat="42.80922" lon="1.75445">
        <ele>1644.95</ele>
        <time>2014-10-15T09:33:09Z</time>
      </trkpt>
      <trkpt lat="42.80939" lon="1.75502">
        <ele>1647.36</ele>
        <time>2014-10-15T09:33:56Z</time>
      </trkpt>
      <trkpt lat="42.80951" lon="1.75556">
        <ele>1645.43</ele>
        <time>2014-10-15T09:34:45Z</time>
      </trkpt>
      <trkpt lat="42.80943" lon="1.75607">
        <ele>1650.72</ele>
        <time>2014-10-15T09:36:02Z</time>
      </trkpt>
      <trkpt lat="42.80914" lon="1.75611">
        <ele>1649.76</ele>
        <time>2014-10-15T09:37:26Z</time>
      </trkpt>
      <trkpt lat="42.80925" lon="1.75639">
        <ele>1648.32</ele>
        <time>2014-10-15T09:45:19Z</time>
      </trkpt>
      <trkpt lat="42.80943" lon="1.75694">
        <ele>1646.4</ele>
        <time>2014-10-15T09:46:01Z</time>
      </trkpt>
      <trkpt lat="42.80955" lon="1.75745">
        <ele>1641.59</ele>
        <time>2014-10-15T09:46:51Z</time>
      </trkpt>
      <trkpt lat="42.8094" lon="1.758">
        <ele>1643.51</ele>
        <time>2014-10-15T09:47:41Z</time>
      </trkpt>
      <trkpt lat="42.8094" lon="1.75855">
        <ele>1650.24</ele>
        <time>2014-10-15T09:48:37Z</time>
      </trkpt>
      <trkpt lat="42.80946" lon="1.75908">
        <ele>1660.81</ele>
        <time>2014-10-15T09:50:40Z</time>
      </trkpt>
      <trkpt lat="42.80982" lon="1.75923">
        <ele>1666.58</ele>
        <time>2014-10-15T09:51:33Z</time>
      </trkpt>
      <trkpt lat="42.8102" lon="1.75903">
        <ele>1672.35</ele>
        <time>2014-10-15T09:52:23Z</time>
      </trkpt>
      <trkpt lat="42.81061" lon="1.75889">
        <ele>1679.08</ele>
        <time>2014-10-15T09:53:15Z</time>
      </trkpt>
      <trkpt lat="42.81101" lon="1.75881">
        <ele>1687.25</ele>
        <time>2014-10-15T09:54:17Z</time>
      </trkpt>
      <trkpt lat="42.8114" lon="1.75883">
        <ele>1698.79</ele>
        <time>2014-10-15T09:55:52Z</time>
      </trkpt>
      <trkpt lat="42.81177" lon="1.7589">
        <ele>1710.8</ele>
        <time>2014-10-15T09:57:05Z</time>
      </trkpt>
      <trkpt lat="42.81219" lon="1.75892">
        <ele>1718.49</ele>
        <time>2014-10-15T09:58:14Z</time>
      </trkpt>
      <trkpt lat="42.81243" lon="1.75847">
        <ele>1715.61</ele>
        <time>2014-10-15T10:00:05Z</time>
      </trkpt>
      <trkpt lat="42.81259" lon="1.758">
        <ele>1710.32</ele>
        <time>2014-10-15T10:01:09Z</time>
      </trkpt>
      <trkpt lat="42.8128" lon="1.75755">
        <ele>1708.88</ele>
        <time>2014-10-15T10:02:12Z</time>
      </trkpt>
      <trkpt lat="42.81297" lon="1.75722">
        <ele>1721.86</ele>
        <time>2014-10-15T10:03:41Z</time>
      </trkpt>
      <trkpt lat="42.81329" lon="1.75708">
        <ele>1741.57</ele>
        <time>2014-10-15T10:06:09Z</time>
      </trkpt>
      <trkpt lat="42.81352" lon="1.7568">
        <ele>1762.71</ele>
        <time>2014-10-15T10:08:32Z</time>
      </trkpt>
      <trkpt lat="42.8138" lon="1.75656">
        <ele>1782.9</ele>
        <time>2014-10-15T10:10:57Z</time>
      </trkpt>
      <trkpt lat="42.81382" lon="1.75611">
        <ele>1795.88</ele>
        <time>2014-10-15T10:12:35Z</time>
      </trkpt>
      <trkpt lat="42.81409" lon="1.75572">
        <ele>1805.49</ele>
        <time>2014-10-15T10:13:51Z</time>
      </trkpt>
      <trkpt lat="42.81376" lon="1.75576">
        <ele>1806.45</ele>
        <time>2014-10-15T10:18:53Z</time>
      </trkpt>
      <trkpt lat="42.8138" lon="1.75596">
        <ele>1800.69</ele>
        <time>2014-10-15T10:20:25Z</time>
      </trkpt>
      <trkpt lat="42.81395" lon="1.75648">
        <ele>1790.11</ele>
        <time>2014-10-15T10:21:55Z</time>
      </trkpt>
      <trkpt lat="42.81362" lon="1.75676">
        <ele>1774.73</ele>
        <time>2014-10-15T10:23:11Z</time>
      </trkpt>
      <trkpt lat="42.81337" lon="1.75698">
        <ele>1755.5</ele>
        <time>2014-10-15T10:24:55Z</time>
      </trkpt>
      <trkpt lat="42.81315" lon="1.75729">
        <ele>1736.28</ele>
        <time>2014-10-15T10:26:24Z</time>
      </trkpt>
      <trkpt lat="42.81284" lon="1.7573">
        <ele>1719.46</ele>
        <time>2014-10-15T10:27:23Z</time>
      </trkpt>
      <trkpt lat="42.81244" lon="1.75739">
        <ele>1705.52</ele>
        <time>2014-10-15T10:28:18Z</time>
      </trkpt>
      <trkpt lat="42.81205" lon="1.75714">
        <ele>1697.83</ele>
        <time>2014-10-15T10:29:16Z</time>
      </trkpt>
      <trkpt lat="42.81168" lon="1.75678">
        <ele>1693.02</ele>
        <time>2014-10-15T10:29:57Z</time>
      </trkpt>
      <trkpt lat="42.81127" lon="1.75652">
        <ele>1689.65</ele>
        <time>2014-10-15T10:30:39Z</time>
      </trkpt>
      <trkpt lat="42.81085" lon="1.75624">
        <ele>1687.73</ele>
        <time>2014-10-15T10:31:19Z</time>
      </trkpt>
      <trkpt lat="42.81049" lon="1.75587">
        <ele>1680.52</ele>
        <time>2014-10-15T10:32:03Z</time>
      </trkpt>
      <trkpt lat="42.81011" lon="1.75591">
        <ele>1673.79</ele>
        <time>2014-10-15T10:32:40Z</time>
      </trkpt>
      <trkpt lat="42.80973" lon="1.75621">
        <ele>1666.1</ele>
        <time>2014-10-15T10:33:19Z</time>
      </trkpt>
      <trkpt lat="42.80932" lon="1.75614">
        <ele>1657.93</ele>
        <time>2014-10-15T10:34:03Z</time>
      </trkpt>
      <trkpt lat="42.80917" lon="1.75619">
        <ele>1656.49</ele>
        <time>2014-10-15T11:17:14Z</time>
      </trkpt>
      <trkpt lat="42.80918" lon="1.75616">
        <ele>1654.09</ele>
        <time>2014-10-15T12:16:53Z</time>
      </trkpt>
      <trkpt lat="42.80932" lon="1.75574">
        <ele>1652.64</ele>
        <time>2014-10-15T12:21:11Z</time>
      </trkpt>
      <trkpt lat="42.80942" lon="1.75528">
        <ele>1650.24</ele>
        <time>2014-10-15T12:22:09Z</time>
      </trkpt>
      <trkpt lat="42.80929" lon="1.75472">
        <ele>1651.2</ele>
        <time>2014-10-15T12:23:06Z</time>
      </trkpt>
      <trkpt lat="42.80911" lon="1.75422">
        <ele>1648.32</ele>
        <time>2014-10-15T12:24:11Z</time>
      </trkpt>
      <trkpt lat="42.80884" lon="1.75384">
        <ele>1643.99</ele>
        <time>2014-10-15T12:25:28Z</time>
      </trkpt>
      <trkpt lat="42.80848" lon="1.75352">
        <ele>1639.19</ele>
        <time>2014-10-15T12:26:13Z</time>
      </trkpt>
      <trkpt lat="42.8085" lon="1.75294">
        <ele>1635.34</ele>
        <time>2014-10-15T12:27:27Z</time>
      </trkpt>
      <trkpt lat="42.80853" lon="1.75237">
        <ele>1623.32</ele>
        <time>2014-10-15T12:28:28Z</time>
      </trkpt>
      <trkpt lat="42.80869" lon="1.75191">
        <ele>1611.79</ele>
        <time>2014-10-15T12:29:39Z</time>
      </trkpt>
      <trkpt lat="42.80847" lon="1.75156">
        <ele>1611.31</ele>
        <time>2014-10-15T12:30:31Z</time>
      </trkpt>
      <trkpt lat="42.80818" lon="1.7511">
        <ele>1605.06</ele>
        <time>2014-10-15T12:32:39Z</time>
      </trkpt>
      <trkpt lat="42.80806" lon="1.75055">
        <ele>1596.89</ele>
        <time>2014-10-15T12:33:54Z</time>
      </trkpt>
      <trkpt lat="42.80783" lon="1.74985">
        <ele>1590.16</ele>
        <time>2014-10-15T12:35:20Z</time>
      </trkpt>
      <trkpt lat="42.80751" lon="1.74932">
        <ele>1585.35</ele>
        <time>2014-10-15T12:36:34Z</time>
      </trkpt>
      <trkpt lat="42.80735" lon="1.74894">
        <ele>1581.51</ele>
        <time>2014-10-15T12:39:10Z</time>
      </trkpt>
      <trkpt lat="42.8072" lon="1.74837">
        <ele>1578.14</ele>
        <time>2014-10-15T12:40:19Z</time>
      </trkpt>
      <trkpt lat="42.80695" lon="1.74787">
        <ele>1571.41</ele>
        <time>2014-10-15T12:41:28Z</time>
      </trkpt>
      <trkpt lat="42.80685" lon="1.74729">
        <ele>1572.85</ele>
        <time>2014-10-15T12:42:38Z</time>
      </trkpt>
      <trkpt lat="42.80676" lon="1.74672">
        <ele>1568.53</ele>
        <time>2014-10-15T12:43:49Z</time>
      </trkpt>
      <trkpt lat="42.80679" lon="1.74621">
        <ele>1563.24</ele>
        <time>2014-10-15T12:46:09Z</time>
      </trkpt>
      <trkpt lat="42.80678" lon="1.74558">
        <ele>1560.36</ele>
        <time>2014-10-15T12:47:02Z</time>
      </trkpt>
      <trkpt lat="42.80671" lon="1.74492">
        <ele>1558.92</ele>
        <time>2014-10-15T12:48:16Z</time>
      </trkpt>
      <trkpt lat="42.80648" lon="1.74481">
        <ele>1556.99</ele>
        <time>2014-10-15T12:50:45Z</time>
      </trkpt>
      <trkpt lat="42.8061" lon="1.74481">
        <ele>1547.38</ele>
        <time>2014-10-15T12:52:24Z</time>
      </trkpt>
      <trkpt lat="42.80569" lon="1.74465">
        <ele>1534.88</ele>
        <time>2014-10-15T12:53:26Z</time>
      </trkpt>
      <trkpt lat="42.80533" lon="1.74428">
        <ele>1526.71</ele>
        <time>2014-10-15T12:54:18Z</time>
      </trkpt>
      <trkpt lat="42.80496" lon="1.74396">
        <ele>1517.1</ele>
        <time>2014-10-15T12:55:14Z</time>
      </trkpt>
      <trkpt lat="42.80463" lon="1.74359">
        <ele>1504.12</ele>
        <time>2014-10-15T12:56:15Z</time>
      </trkpt>
      <trkpt lat="42.8043" lon="1.74325">
        <ele>1493.06</ele>
        <time>2014-10-15T12:57:48Z</time>
      </trkpt>
      <trkpt lat="42.80437" lon="1.74382">
        <ele>1485.85</ele>
        <time>2014-10-15T13:00:35Z</time>
      </trkpt>
      <trkpt lat="42.80412" lon="1.74388">
        <ele>1474.8</ele>
        <time>2014-10-15T13:01:48Z</time>
      </trkpt>
      <trkpt lat="42.80386" lon="1.74405">
        <ele>1460.38</ele>
        <time>2014-10-15T13:02:58Z</time>
      </trkpt>
      <trkpt lat="42.80351" lon="1.7438">
        <ele>1445</ele>
        <time>2014-10-15T13:04:07Z</time>
      </trkpt>
      <trkpt lat="42.80332" lon="1.74333">
        <ele>1435.87</ele>
        <time>2014-10-15T13:05:42Z</time>
      </trkpt>
      <trkpt lat="42.80319" lon="1.74281">
        <ele>1426.73</ele>
        <time>2014-10-15T13:06:58Z</time>
      </trkpt>
      <trkpt lat="42.80305" lon="1.74224">
        <ele>1417.12</ele>
        <time>2014-10-15T13:07:47Z</time>
      </trkpt>
      <trkpt lat="42.80295" lon="1.74164">
        <ele>1409.91</ele>
        <time>2014-10-15T13:08:38Z</time>
      </trkpt>
      <trkpt lat="42.80288" lon="1.74105">
        <ele>1399.34</ele>
        <time>2014-10-15T13:09:41Z</time>
      </trkpt>
      <trkpt lat="42.80268" lon="1.74058">
        <ele>1391.17</ele>
        <time>2014-10-15T13:10:32Z</time>
      </trkpt>
      <trkpt lat="42.8023" lon="1.74036">
        <ele>1386.84</ele>
        <time>2014-10-15T13:12:38Z</time>
      </trkpt>
      <trkpt lat="42.80186" lon="1.74034">
        <ele>1376.75</ele>
        <time>2014-10-15T13:15:34Z</time>
      </trkpt>
      <trkpt lat="42.80145" lon="1.74025">
        <ele>1367.61</ele>
        <time>2014-10-15T13:16:24Z</time>
      </trkpt>
      <trkpt lat="42.80116" lon="1.74046">
        <ele>1353.67</ele>
        <time>2014-10-15T13:17:39Z</time>
      </trkpt>
      <trkpt lat="42.80077" lon="1.74052">
        <ele>1340.7</ele>
        <time>2014-10-15T13:18:47Z</time>
      </trkpt>
      <trkpt lat="42.80041" lon="1.74029">
        <ele>1329.16</ele>
        <time>2014-10-15T13:19:37Z</time>
      </trkpt>
      <trkpt lat="42.80019" lon="1.73979">
        <ele>1320.03</ele>
        <time>2014-10-15T13:20:32Z</time>
      </trkpt>
      <trkpt lat="42.79984" lon="1.73943">
        <ele>1312.34</ele>
        <time>2014-10-15T13:21:21Z</time>
      </trkpt>
      <trkpt lat="42.79952" lon="1.73903">
        <ele>1306.57</ele>
        <time>2014-10-15T13:22:10Z</time>
      </trkpt>
      <trkpt lat="42.79922" lon="1.73894">
        <ele>1298.4</ele>
        <time>2014-10-15T13:25:31Z</time>
      </trkpt>
      <trkpt lat="42.79876" lon="1.73917">
        <ele>1286.86</ele>
        <time>2014-10-15T13:26:43Z</time>
      </trkpt>
      <trkpt lat="42.79831" lon="1.73956">
        <ele>1274.36</ele>
        <time>2014-10-15T13:27:36Z</time>
      </trkpt>
      <trkpt lat="42.79798" lon="1.73999">
        <ele>1264.75</ele>
        <time>2014-10-15T13:28:27Z</time>
      </trkpt>
      <trkpt lat="42.79757" lon="1.74016">
        <ele>1257.06</ele>
        <time>2014-10-15T13:29:12Z</time>
      </trkpt>
      <trkpt lat="42.79714" lon="1.74014">
        <ele>1249.37</ele>
        <time>2014-10-15T13:29:59Z</time>
      </trkpt>
      <trkpt lat="42.79672" lon="1.74002">
        <ele>1237.83</ele>
        <time>2014-10-15T13:30:56Z</time>
      </trkpt>
      <trkpt lat="42.79632" lon="1.73982">
        <ele>1226.78</ele>
        <time>2014-10-15T13:31:51Z</time>
      </trkpt>
      <trkpt lat="42.79592" lon="1.73966">
        <ele>1218.13</ele>
        <time>2014-10-15T13:32:43Z</time>
      </trkpt>
      <trkpt lat="42.79559" lon="1.73941">
        <ele>1209.48</ele>
        <time>2014-10-15T13:33:43Z</time>
      </trkpt>
      <trkpt lat="42.79527" lon="1.7397">
        <ele>1198.9</ele>
        <time>2014-10-15T13:34:42Z</time>
      </trkpt>
      <trkpt lat="42.79522" lon="1.73914">
        <ele>1190.25</ele>
        <time>2014-10-15T13:35:38Z</time>
      </trkpt>
      <trkpt lat="42.79531" lon="1.73856">
        <ele>1180.16</ele>
        <time>2014-10-15T13:36:50Z</time>
      </trkpt>
      <trkpt lat="42.79523" lon="1.73798">
        <ele>1168.14</ele>
        <time>2014-10-15T13:38:00Z</time>
      </trkpt>
      <trkpt lat="42.79532" lon="1.73744">
        <ele>1157.56</ele>
        <time>2014-10-15T13:39:33Z</time>
      </trkpt>
      <trkpt lat="42.79548" lon="1.73691">
        <ele>1146.99</ele>
        <time>2014-10-15T13:41:34Z</time>
      </trkpt>
      <trkpt lat="42.79557" lon="1.73635">
        <ele>1138.82</ele>
        <time>2014-10-15T13:43:20Z</time>
      </trkpt>
      <trkpt lat="42.79546" lon="1.73576">
        <ele>1124.4</ele>
        <time>2014-10-15T13:44:31Z</time>
      </trkpt>
      <trkpt lat="42.79529" lon="1.73542">
        <ele>1110.94</ele>
        <time>2014-10-15T13:45:19Z</time>
      </trkpt>
      <trkpt lat="42.79494" lon="1.7357">
        <ele>1097.48</ele>
        <time>2014-10-15T13:46:38Z</time>
      </trkpt>
      <trkpt lat="42.79477" lon="1.73562">
        <ele>1086.91</ele>
        <time>2014-10-15T13:47:36Z</time>
      </trkpt>
      <trkpt lat="42.79473" lon="1.73502">
        <ele>1076.33</ele>
        <time>2014-10-15T13:49:15Z</time>
      </trkpt>
      <trkpt lat="42.7946" lon="1.73447">
        <ele>1065.76</ele>
        <time>2014-10-15T13:50:36Z</time>
      </trkpt>
      <trkpt lat="42.7945" lon="1.73387">
        <ele>1059.51</ele>
        <time>2014-10-15T13:51:25Z</time>
      </trkpt>
      <trkpt lat="42.79398" lon="1.734">
        <ele>1051.34</ele>
        <time>2014-10-15T13:52:17Z</time>
      </trkpt>
      <trkpt lat="42.7935" lon="1.73399">
        <ele>1042.21</ele>
        <time>2014-10-15T13:53:15Z</time>
      </trkpt>
      <trkpt lat="42.79302" lon="1.73406">
        <ele>1028.27</ele>
        <time>2014-10-15T13:54:27Z</time>
      </trkpt>
      <trkpt lat="42.79272" lon="1.73398">
        <ele>1018.65</ele>
        <time>2014-10-15T13:55:25Z</time>
      </trkpt>
      <trkpt lat="42.7923" lon="1.73373">
        <ele>1010.48</ele>
        <time>2014-10-15T13:56:08Z</time>
      </trkpt>
      <trkpt lat="42.79198" lon="1.73325">
        <ele>1005.68</ele>
        <time>2014-10-15T13:56:49Z</time>
      </trkpt>
      <trkpt lat="42.79174" lon="1.73276">
        <ele>1001.35</ele>
        <time>2014-10-15T13:57:33Z</time>
      </trkpt>
    </trkseg>
  </trk>
</gpx>